Time;durP1;ratioP1;P1;durP2;ratioP2;P2;SDS_P1;SDS_P2;PMS_P1;PMS_P2;Temp;Humidity;BMP_temperature;BMP_pressure;BME280_temperature;BME280_humidity;BME280_pressure;Samples;Min_cycle;Max_cycle;Signal;HPM_P1;HPM_P2
2021/05/21 00:01:17;;;;;;;;;0.25;0.25;;;;;;;;5053609;28;8846;-78
2021/05/21 00:03:44;;;;;;;;;0.00;0.00;;;;;;;;5058626;28;8900;-78
2021/05/21 00:06:11;;;;;;;;;0.00;0.00;;;;;;;;5059647;28;8848;-79
2021/05/21 00:08:38;;;;;;;;;1.00;1.00;;;;;;;;5036652;28;8857;-80
2021/05/21 00:11:05;;;;;;;;;1.00;1.00;;;;;;;;5055134;28;8969;-79
2021/05/21 00:13:32;;;;;;;;;1.00;1.00;;;;;;;;5050774;28;8985;-80
2021/05/21 00:15:59;;;;;;;;;0.00;0.00;;;;;;;;5082343;28;8972;-79
2021/05/21 00:18:27;;;;;;;;;0.50;0.50;;;;;;;;5059257;28;8880;-80
2021/05/21 00:20:54;;;;;;;;;0.00;0.00;;;;;;;;5056434;28;9043;-79
2021/05/21 00:23:21;;;;;;;;;0.25;0.00;;;;;;;;5050580;28;8876;-80
2021/05/21 00:25:48;;;;;;;;;0.00;0.00;;;;;;;;5072716;28;8866;-80
2021/05/21 00:28:15;;;;;;;;;0.00;0.00;;;;;;;;5050365;28;8892;-80
2021/05/21 00:30:42;;;;;;;;;3.25;1.00;;;;;;;;5054496;28;8827;-79
2021/05/21 00:33:09;;;;;;;;;0.00;0.00;;;;;;;;5051318;28;8880;-79
2021/05/21 00:35:37;;;;;;;;;0.00;0.00;;;;;;;;5053687;28;8872;-79
2021/05/21 00:38:05;;;;;;;;;0.25;0.25;;;;;;;;5044052;28;8864;-79
2021/05/21 00:40:32;;;;;;;;;1.00;1.00;;;;;;;;5057633;28;8884;-79
2021/05/21 00:42:59;;;;;;;;;1.00;0.00;;;;;;;;5059118;28;8858;-79
2021/05/21 00:45:26;;;;;;;;;0.50;0.50;;;;;;;;5060906;28;9006;-79
2021/05/21 00:47:53;;;;;;;;;1.00;1.00;;;;;;;;5062625;28;8860;-79
2021/05/21 00:50:20;;;;;;;;;0.00;0.00;;;;;;;;5059872;28;8868;-80
2021/05/21 00:52:48;;;;;;;;;1.50;0.00;;;;;;;;5044743;28;8896;-79
2021/05/21 00:55:18;;;;;;;;;1.25;0.00;;;;;;;;5056432;28;8869;-78
2021/05/21 00:57:45;;;;;;;;;0.00;0.00;;;;;;;;5044953;28;8875;-79
2021/05/21 01:00:12;;;;;;;;;0.50;0.50;;;;;;;;5062573;28;8865;-80
2021/05/21 01:02:39;;;;;;;;;1.75;1.75;;;;;;;;5059110;28;8880;-79
2021/05/21 01:05:07;;;;;;;;;1.00;1.00;;;;;;;;5060398;28;8856;-79
2021/05/21 01:07:34;;;;;;;;;2.00;0.00;;;;;;;;5056355;28;8874;-79
2021/05/21 01:10:03;;;;;;;;;1.00;1.00;;;;;;;;5064598;28;8990;-79
2021/05/21 01:12:30;;;;;;;;;0.50;0.50;;;;;;;;5043387;28;8868;-79
2021/05/21 01:14:57;;;;;;;;;1.00;1.00;;;;;;;;5064646;28;8879;-79
2021/05/21 01:17:25;;;;;;;;;0.50;0.50;;;;;;;;5059585;28;8884;-80
2021/05/21 01:19:53;;;;;;;;;0.75;0.75;;;;;;;;5065000;28;8860;-80
2021/05/21 01:22:21;;;;;;;;;0.00;0.00;;;;;;;;5061178;28;8888;-80
2021/05/21 01:24:48;;;;;;;;;0.00;0.00;;;;;;;;5058453;28;8904;-80
2021/05/21 01:27:17;;;;;;;;;3.50;1.00;;;;;;;;5060758;28;8898;-80
2021/05/21 01:29:44;;;;;;;;;1.00;1.00;;;;;;;;5041201;28;8873;-80
2021/05/21 01:32:11;;;;;;;;;1.00;1.00;;;;;;;;5058140;28;8999;-80
2021/05/21 01:34:39;;;;;;;;;1.00;1.00;;;;;;;;5056357;28;8860;-80
2021/05/21 01:37:14;;;;;;;;;0.50;0.50;;;;;;;;5037914;28;9005;-79
2021/05/21 01:39:43;;;;;;;;;1.00;1.00;;;;;;;;5055838;28;8893;-80
2021/05/21 01:42:12;;;;;;;;;2.00;0.00;;;;;;;;5041596;28;8876;-80
2021/05/21 01:44:39;;;;;;;;;2.25;1.00;;;;;;;;5058688;28;8953;-80
2021/05/21 01:47:06;;;;;;;;;4.25;1.25;;;;;;;;5072832;28;8870;-81
2021/05/21 01:49:33;;;;;;;;;2.25;1.00;;;;;;;;5055117;28;8859;-80
2021/05/21 01:52:00;;;;;;;;;0.75;0.75;;;;;;;;5054146;28;8886;-80
2021/05/21 01:54:29;;;;;;;;;0.33;0.33;;;;;;;;5057846;28;8852;-79
2021/05/21 01:56:57;;;;;;;;;0.67;0.67;;;;;;;;5055094;28;8947;-79
2021/05/21 01:59:25;;;;;;;;;4.00;1.00;;;;;;;;5047052;28;8944;-79
2021/05/21 02:01:52;;;;;;;;;0.00;0.00;;;;;;;;5052019;28;8951;-79
2021/05/21 02:04:28;;;;;;;;;0.33;0.33;;;;;;;;5049032;28;8997;-80
2021/05/21 02:06:55;;;;;;;;;1.00;1.00;;;;;;;;5057310;28;8948;-79
2021/05/21 02:09:22;;;;;;;;;2.00;0.00;;;;;;;;5062398;28;8942;-78
2021/05/21 02:11:49;;;;;;;;;0.00;0.00;;;;;;;;5026168;28;9059;-80
2021/05/21 02:14:17;;;;;;;;;2.00;1.00;;;;;;;;5055357;28;9108;-80
2021/05/21 02:16:44;;;;;;;;;1.33;1.33;;;;;;;;5045431;28;9892;-79
2021/05/21 02:19:11;;;;;;;;;1.00;1.00;;;;;;;;5044154;28;9186;-79
2021/05/21 02:21:40;;;;;;;;;1.00;1.00;;;;;;;;5061669;28;9202;-78
2021/05/21 02:24:09;;;;;;;;;1.33;0.67;;;;;;;;5063041;28;9149;-80
2021/05/21 02:26:36;;;;;;;;;0.00;0.00;;;;;;;;5056288;28;9167;-80
2021/05/21 02:29:04;;;;;;;;;3.00;1.00;;;;;;;;5043837;28;9030;-79
2021/05/21 02:31:33;;;;;;;;;4.00;1.00;;;;;;;;5063944;28;9083;-79
2021/05/21 02:34:00;;;;;;;;;0.00;0.00;;;;;;;;5059876;28;9194;-80
2021/05/21 02:36:27;;;;;;;;;1.00;1.00;;;;;;;;5060960;28;9241;-80
2021/05/21 02:38:54;;;;;;;;;2.67;1.00;;;;;;;;5054372;28;9458;-80
2021/05/21 02:41:21;;;;;;;;;1.00;1.00;;;;;;;;5066643;28;9250;-79
2021/05/21 02:43:48;;;;;;;;;3.00;1.67;;;;;;;;5034766;28;9333;-79
2021/05/21 02:46:15;;;;;;;;;0.67;0.67;;;;;;;;5061016;28;9237;-80
2021/05/21 02:48:43;;;;;;;;;3.00;1.67;;;;;;;;5052663;28;10403;-80
2021/05/21 02:51:10;;;;;;;;;2.00;2.00;;;;;;;;5058601;28;9255;-80
2021/05/21 02:53:37;;;;;;;;;3.67;1.00;;;;;;;;5059617;28;9358;-80
2021/05/21 02:56:05;;;;;;;;;6.67;1.67;;;;;;;;5054719;28;9437;-80
2021/05/21 02:58:32;;;;;;;;;9.33;2.00;;;;;;;;5042177;28;9374;-79
2021/05/21 03:00:59;;;;;;;;;1.00;1.00;;;;;;;;5051077;28;9383;-79
2021/05/21 03:03:26;;;;;;;;;3.33;1.67;;;;;;;;5053106;28;9185;-79
2021/05/21 03:05:55;;;;;;;;;3.00;1.33;;;;;;;;5047169;28;9548;-79
2021/05/21 03:08:23;;;;;;;;;3.00;1.00;;;;;;;;5055534;28;10034;-79
2021/05/21 03:10:50;;;;;;;;;3.00;1.00;;;;;;;;5054432;28;9362;-79
2021/05/21 03:13:17;;;;;;;;;0.67;0.00;;;;;;;;5061326;28;9294;-80
2021/05/21 03:15:45;;;;;;;;;1.00;1.00;;;;;;;;5061058;28;9259;-79
2021/05/21 03:18:18;;;;;;;;;3.33;2.00;;;;;;;;5063919;28;9357;-79
2021/05/21 03:20:45;;;;;;;;;0.00;0.00;;;;;;;;5060847;28;9485;-78
2021/05/21 03:23:13;;;;;;;;;2.00;2.00;;;;;;;;5039475;28;9424;-80
2021/05/21 03:25:41;;;;;;;;;1.00;1.00;;;;;;;;5060941;28;9555;-80
2021/05/21 03:28:08;;;;;;;;;1.75;1.75;;;;;;;;5056330;28;9418;-81
2021/05/21 03:30:35;;;;;;;;;3.25;2.00;;;;;;;;5053282;28;9560;-81
2021/05/21 03:33:02;;;;;;;;;3.67;1.67;;;;;;;;5057763;28;9514;-82
2021/05/21 03:35:29;;;;;;;;;2.00;2.00;;;;;;;;5058048;28;9358;-80
2021/05/21 03:37:56;;;;;;;;;4.75;3.00;;;;;;;;5059167;28;10275;-80
2021/05/21 03:40:23;;;;;;;;;2.50;1.00;;;;;;;;5065196;28;9798;-80
2021/05/21 03:42:50;;;;;;;;;3.00;1.75;;;;;;;;5063920;28;9398;-81
2021/05/21 03:45:18;;;;;;;;;4.25;2.00;;;;;;;;5055921;28;9414;-78
2021/05/21 03:47:47;;;;;;;;;3.00;1.50;;;;;;;;5048060;28;9549;-79
2021/05/21 03:50:17;;;;;;;;;2.00;1.00;;;;;;;;5060887;28;9642;-80
2021/05/21 03:52:45;;;;;;;;;3.00;1.00;;;;;;;;5056909;28;9483;-81
2021/05/21 03:55:13;;;;;;;;;7.00;2.75;;;;;;;;5047531;28;9625;-80
2021/05/21 03:57:41;;;;;;;;;0.25;0.25;;;;;;;;5056511;28;10395;-80
2021/05/21 04:00:10;;;;;;;;;4.25;2.00;;;;;;;;5047521;28;9483;-80
2021/05/21 04:02:37;;;;;;;;;1.75;1.50;;;;;;;;5059068;28;9407;-80
2021/05/21 04:05:05;;;;;;;;;3.00;3.00;;;;;;;;5060009;28;9493;-80
2021/05/21 04:07:32;;;;;;;;;5.00;2.25;;;;;;;;5056236;28;9638;-81
2021/05/21 04:09:58;;;;;;;;;3.00;2.00;;;;;;;;5057591;28;9597;-81
2021/05/21 04:12:25;;;;;;;;;5.25;2.00;;;;;;;;5058135;28;10333;-80
2021/05/21 04:14:53;;;;;;;;;1.50;1.00;;;;;;;;5059639;28;9548;-81
2021/05/21 04:17:20;;;;;;;;;3.00;2.00;;;;;;;;5062967;28;9553;-74
2021/05/21 04:19:47;;;;;;;;;3.00;1.67;;;;;;;;5065769;28;9596;-74
2021/05/21 04:22:14;;;;;;;;;3.00;1.25;;;;;;;;5059314;28;9359;-75
2021/05/21 04:24:41;;;;;;;;;4.50;1.00;;;;;;;;5050583;28;9489;-74
2021/05/21 04:27:08;;;;;;;;;1.00;1.00;;;;;;;;5056210;28;10228;-74
2021/05/21 04:29:35;;;;;;;;;1.75;1.25;;;;;;;;5059090;28;9388;-74
2021/05/21 04:32:03;;;;;;;;;2.00;2.00;;;;;;;;5052752;28;10164;-74
2021/05/21 04:34:30;;;;;;;;;1.00;1.00;;;;;;;;5053882;28;10147;-71
2021/05/21 04:36:58;;;;;;;;;2.75;1.75;;;;;;;;5044128;28;9492;-73
2021/05/21 04:39:25;;;;;;;;;2.00;2.00;;;;;;;;5043409;28;9520;-74
2021/05/21 04:41:52;;;;;;;;;2.00;2.00;;;;;;;;5055171;28;9604;-74
2021/05/21 04:44:19;;;;;;;;;2.00;1.00;;;;;;;;5065066;28;9542;-76
2021/05/21 04:46:46;;;;;;;;;2.25;1.00;;;;;;;;5043367;28;9426;-74
2021/05/21 04:51:58;;;;;;;;;1.00;1.00;;;;;;;;5058991;28;9539;-74
2021/05/21 04:54:24;;;;;;;;;3.00;0.25;;;;;;;;5045645;28;9499;-74
2021/05/21 04:56:51;;;;;;;;;3.25;1.50;;;;;;;;5058171;28;9488;-74
2021/05/21 04:59:18;;;;;;;;;2.00;2.00;;;;;;;;5048794;28;9571;-74
2021/05/21 05:01:45;;;;;;;;;1.00;1.00;;;;;;;;5055842;28;9628;-74
2021/05/21 05:04:13;;;;;;;;;1.00;1.00;;;;;;;;5049925;28;9684;-75
2021/05/21 05:06:41;;;;;;;;;1.00;1.00;;;;;;;;5049403;28;9540;-75
2021/05/21 05:09:08;;;;;;;;;1.25;1.25;;;;;;;;5058014;28;9681;-74
2021/05/21 05:11:37;;;;;;;;;1.25;1.25;;;;;;;;5051244;28;9557;-74
2021/05/21 05:14:04;;;;;;;;;0.50;0.50;;;;;;;;5058161;28;10204;-77
2021/05/21 05:16:31;;;;;;;;;2.00;0.00;;;;;;;;5053403;28;9557;-75
2021/05/21 05:18:58;;;;;;;;;2.25;1.00;;;;;;;;5051825;28;9577;-75
2021/05/21 05:21:26;;;;;;;;;2.00;2.00;;;;;;;;5055395;28;9650;-75
2021/05/21 05:23:54;;;;;;;;;5.25;2.00;;;;;;;;5061998;28;10392;-75
2021/05/21 05:26:21;;;;;;;;;3.00;2.00;;;;;;;;5056404;28;9557;-74
2021/05/21 05:28:49;;;;;;;;;4.50;2.00;;;;;;;;5060349;28;9682;-73
2021/05/21 05:31:18;;;;;;;;;2.25;1.00;;;;;;;;5058638;28;9775;-75
2021/05/21 05:33:46;;;;;;;;;2.25;1.50;;;;;;;;5052609;28;9671;-73
2021/05/21 05:36:13;;;;;;;;;1.00;1.00;;;;;;;;5068232;28;9554;-73
2021/05/21 05:38:40;;;;;;;;;2.75;1.00;;;;;;;;5052035;28;10268;-73
2021/05/21 05:41:07;;;;;;;;;1.00;1.00;;;;;;;;5055665;28;9569;-72
2021/05/21 05:43:34;;;;;;;;;7.50;2.00;;;;;;;;5060719;28;9565;-71
2021/05/21 05:46:01;;;;;;;;;6.00;2.75;;;;;;;;5065366;28;9467;-71
2021/05/21 05:48:27;;;;;;;;;1.25;1.00;;;;;;;;5058195;28;9648;-72
2021/05/21 05:50:54;;;;;;;;;2.00;2.00;;;;;;;;5052501;28;9544;-73
2021/05/21 05:53:21;;;;;;;;;7.33;3.00;;;;;;;;5053531;28;9573;-72
2021/05/21 05:55:48;;;;;;;;;1.67;1.33;;;;;;;;5053124;28;9422;-72
2021/05/21 05:58:15;;;;;;;;;2.00;2.00;;;;;;;;5061425;28;9426;-73
2021/05/21 06:00:42;;;;;;;;;0.00;0.00;;;;;;;;5059180;28;9224;-73
2021/05/21 06:03:11;;;;;;;;;3.00;1.67;;;;;;;;5057714;28;9279;-73
2021/05/21 06:05:38;;;;;;;;;2.50;1.00;;;;;;;;5055124;28;9341;-72
2021/05/21 06:08:07;;;;;;;;;1.00;0.00;;;;;;;;5056540;28;9493;-72
2021/05/21 06:10:35;;;;;;;;;4.33;1.00;;;;;;;;5057058;28;9401;-72
2021/05/21 06:13:04;;;;;;;;;1.67;1.67;;;;;;;;5060521;28;10117;-74
2021/05/21 06:15:32;;;;;;;;;2.00;2.00;;;;;;;;5059714;28;10159;-73
2021/05/21 06:17:59;;;;;;;;;2.33;1.00;;;;;;;;5063214;28;9493;-78
2021/05/21 06:20:27;;;;;;;;;1.00;1.00;;;;;;;;5034618;28;9328;-74
2021/05/21 06:22:54;;;;;;;;;3.00;1.00;;;;;;;;5061799;28;9388;-74
2021/05/21 06:25:24;;;;;;;;;1.00;1.00;;;;;;;;5063343;28;9410;-73
2021/05/21 06:27:51;;;;;;;;;4.25;3.00;;;;;;;;5063613;28;9319;-73
2021/05/21 06:30:21;;;;;;;;;1.67;1.67;;;;;;;;5056582;28;10265;-74
2021/05/21 06:32:48;;;;;;;;;3.00;1.00;;;;;;;;5080071;28;9437;-74
2021/05/21 06:35:15;;;;;;;;;2.00;2.00;;;;;;;;5066719;28;9344;-73
2021/05/21 06:37:42;;;;;;;;;4.00;2.00;;;;;;;;5067754;28;9212;-75
2021/05/21 06:40:10;;;;;;;;;3.00;1.67;;;;;;;;5061126;28;9796;-73
2021/05/21 06:42:37;;;;;;;;;3.00;1.00;;;;;;;;5062976;28;9093;-74
2021/05/21 06:45:06;;;;;;;;;5.67;2.33;;;;;;;;5062736;28;9098;-73
2021/05/21 06:47:34;;;;;;;;;4.00;2.33;;;;;;;;5071954;28;9234;-73
2021/05/21 06:50:01;;;;;;;;;4.67;3.00;;;;;;;;5063957;28;9338;-74
2021/05/21 06:52:28;;;;;;;;;3.33;2.00;;;;;;;;5062436;28;9203;-73
2021/05/21 06:54:55;;;;;;;;;1.00;1.00;;;;;;;;5064242;28;9039;-74
2021/05/21 06:57:23;;;;;;;;;3.67;2.00;;;;;;;;5062117;28;9030;-74
2021/05/21 06:59:50;;;;;;;;;2.00;2.00;;;;;;;;5063079;28;9103;-74
2021/05/21 07:02:18;;;;;;;;;2.00;2.00;;;;;;;;5061600;28;9917;-74
2021/05/21 07:04:45;;;;;;;;;3.33;0.33;;;;;;;;5044274;28;9801;-74
2021/05/21 07:07:12;;;;;;;;;4.00;2.67;;;;;;;;5062626;28;9090;-74
2021/05/21 07:09:39;;;;;;;;;3.00;1.00;;;;;;;;5061472;28;9035;-73
2021/05/21 07:12:06;;;;;;;;;1.33;1.33;;;;;;;;5063750;28;9073;-73
2021/05/21 07:14:33;;;;;;;;;4.33;2.67;;;;;;;;5061506;28;9197;-74
2021/05/21 07:17:00;;;;;;;;;5.00;1.67;;;;;;;;5062779;28;9039;-73
2021/05/21 07:19:27;;;;;;;;;1.00;1.00;;;;;;;;5061391;28;9157;-74
2021/05/21 07:21:55;;;;;;;;;1.67;1.33;;;;;;;;5062935;28;9105;-73
2021/05/21 07:24:22;;;;;;;;;4.00;2.00;;;;;;;;5061253;28;9191;-73
2021/05/21 07:26:49;;;;;;;;;3.33;2.00;;;;;;;;5043759;28;9048;-74
2021/05/21 07:29:15;;;;;;;;;6.67;3.00;;;;;;;;5034414;28;9026;-72
2021/05/21 07:31:42;;;;;;;;;1.67;1.00;;;;;;;;5051982;28;9003;-75
2021/05/21 07:34:10;;;;;;;;;3.00;1.00;;;;;;;;5058653;28;9177;-73
2021/05/21 07:36:36;;;;;;;;;3.67;2.33;;;;;;;;5059711;28;8968;-73
2021/05/21 07:39:06;;;;;;;;;2.00;0.00;;;;;;;;5059907;28;8940;-73
2021/05/21 07:41:33;;;;;;;;;3.00;2.00;;;;;;;;5058777;28;8980;-72
2021/05/21 07:44:00;;;;;;;;;1.25;1.25;;;;;;;;5058047;28;9046;-73
2021/05/21 07:46:27;;;;;;;;;3.50;2.00;;;;;;;;5057220;28;8872;-74
2021/05/21 07:48:56;;;;;;;;;1.00;1.00;;;;;;;;5056931;28;8886;-73
2021/05/21 07:51:23;;;;;;;;;1.50;0.75;;;;;;;;5059782;28;8952;-73
2021/05/21 07:53:50;;;;;;;;;5.50;2.00;;;;;;;;5058765;28;8880;-74
2021/05/21 07:56:18;;;;;;;;;3.25;1.50;;;;;;;;5058558;28;8905;-73
2021/05/21 07:58:45;;;;;;;;;0.50;0.00;;;;;;;;5055921;28;8903;-74
2021/05/21 08:01:12;;;;;;;;;1.75;1.75;;;;;;;;5058144;28;8844;-73
2021/05/21 08:03:39;;;;;;;;;3.75;1.00;;;;;;;;5059838;28;8894;-74
2021/05/21 08:06:06;;;;;;;;;2.00;1.00;;;;;;;;5058085;28;8872;-74
2021/05/21 08:08:33;;;;;;;;;1.50;1.50;;;;;;;;5058657;28;8867;-74
2021/05/21 08:11:02;;;;;;;;;2.00;0.50;;;;;;;;5053263;28;9024;-74
2021/05/21 08:13:30;;;;;;;;;4.50;2.00;;;;;;;;5058276;28;8872;-74
2021/05/21 08:15:57;;;;;;;;;4.00;1.25;;;;;;;;5058999;28;8884;-74
2021/05/21 08:18:24;;;;;;;;;2.75;2.75;;;;;;;;5042440;28;8878;-74
2021/05/21 08:20:51;;;;;;;;;1.50;1.00;;;;;;;;5057627;28;8857;-73
2021/05/21 08:23:18;;;;;;;;;3.00;1.50;;;;;;;;5054940;28;8876;-74
2021/05/21 08:25:45;;;;;;;;;1.75;1.75;;;;;;;;5073099;28;8876;-73
2021/05/21 08:28:13;;;;;;;;;1.00;1.00;;;;;;;;5054931;28;8902;-73
2021/05/21 08:30:41;;;;;;;;;4.00;1.00;;;;;;;;5057261;28;8801;-74
2021/05/21 08:33:10;;;;;;;;;2.00;1.25;;;;;;;;5054808;28;8865;-72
2021/05/21 08:35:37;;;;;;;;;2.25;1.75;;;;;;;;5058931;28;8942;-73
2021/05/21 08:38:04;;;;;;;;;1.00;1.00;;;;;;;;5057919;28;9008;-72
2021/05/21 08:40:36;;;;;;;;;3.00;3.00;;;;;;;;5055703;28;9042;-73
2021/05/21 08:43:07;;;;;;;;;4.50;1.00;;;;;;;;5058434;28;8895;-73
2021/05/21 08:45:34;;;;;;;;;2.50;1.75;;;;;;;;5063954;28;8856;-72
2021/05/21 08:48:02;;;;;;;;;2.25;1.00;;;;;;;;5062411;28;8846;-73
2021/05/21 08:50:30;;;;;;;;;2.00;2.00;;;;;;;;5061048;28;8878;-72
2021/05/21 08:52:57;;;;;;;;;3.00;2.00;;;;;;;;5051752;28;9018;-73
2021/05/21 08:55:24;;;;;;;;;1.00;0.25;;;;;;;;5060134;28;8870;-73
2021/05/21 08:57:51;;;;;;;;;0.75;0.75;;;;;;;;5062318;28;8862;-74
2021/05/21 09:00:19;;;;;;;;;1.00;1.00;;;;;;;;5066736;28;8869;-73
2021/05/21 09:02:46;;;;;;;;;1.25;1.25;;;;;;;;5064719;28;8952;-74
2021/05/21 09:05:14;;;;;;;;;1.00;0.50;;;;;;;;5065339;28;8975;-72
2021/05/21 09:07:42;;;;;;;;;2.50;2.00;;;;;;;;5063316;28;8963;-72
2021/05/21 09:10:10;;;;;;;;;0.75;0.75;;;;;;;;5063762;28;8857;-71
2021/05/21 09:12:41;;;;;;;;;2.50;1.00;;;;;;;;5058400;28;8860;-72
2021/05/21 09:15:11;;;;;;;;;0.75;0.75;;;;;;;;5064022;28;9703;-72
2021/05/21 09:17:49;;;;;;;;;4.00;1.00;;;;;;;;5058326;28;8850;-72
2021/05/21 09:20:23;;;;;;;;;4.00;2.00;;;;;;;;5063054;28;8894;-72
2021/05/21 09:23:05;;;;;;;;;2.00;1.00;;;;;;;;5063710;28;8852;-72
2021/05/21 09:25:35;;;;;;;;;2.00;0.00;;;;;;;;5060991;28;8845;-72
2021/05/21 09:28:02;;;;;;;;;1.50;0.75;;;;;;;;5064451;28;8840;-73
2021/05/21 09:30:29;;;;;;;;;1.00;1.00;;;;;;;;5062619;28;8819;-72
2021/05/21 09:33:02;;;;;;;;;4.00;1.00;;;;;;;;5068573;28;8902;-73
2021/05/21 09:35:31;;;;;;;;;4.00;1.25;;;;;;;;5055237;28;9290;-72
2021/05/21 09:37:58;;;;;;;;;2.00;0.00;;;;;;;;5037011;28;8876;-72
2021/05/21 09:40:26;;;;;;;;;0.75;0.75;;;;;;;;5053922;28;8979;-72
2021/05/21 09:42:58;;;;;;;;;1.00;1.00;;;;;;;;5055125;28;8959;-71
2021/05/21 09:45:30;;;;;;;;;1.00;0.75;;;;;;;;5060823;28;8945;-72
2021/05/21 09:48:00;;;;;;;;;1.50;1.00;;;;;;;;5063599;28;8955;-73
2021/05/21 09:50:33;;;;;;;;;1.00;1.00;;;;;;;;5057461;28;8871;-71
2021/05/21 09:53:08;;;;;;;;;2.00;0.75;;;;;;;;5063213;28;8894;-72
2021/05/21 09:55:38;;;;;;;;;1.00;1.00;;;;;;;;5061281;28;9000;-71
2021/05/21 09:58:06;;;;;;;;;2.75;0.75;;;;;;;;5062340;28;9680;-73
2021/05/21 10:00:33;;;;;;;;;1.00;1.00;;;;;;;;5065020;28;8865;-73
2021/05/21 10:03:01;;;;;;;;;1.00;1.00;;;;;;;;5065382;28;8888;-73
2021/05/21 10:05:29;;;;;;;;;3.50;1.50;;;;;;;;5062797;28;9786;-73
2021/05/21 10:07:58;;;;;;;;;1.00;1.00;;;;;;;;5064874;28;8888;-73
2021/05/21 10:10:25;;;;;;;;;2.00;1.00;;;;;;;;5058727;28;8888;-73
2021/05/21 10:12:53;;;;;;;;;1.50;1.00;;;;;;;;5070333;28;8864;-74
2021/05/21 10:15:20;;;;;;;;;1.00;1.00;;;;;;;;5064609;28;9691;-74
2021/05/21 10:17:49;;;;;;;;;1.00;1.00;;;;;;;;5065999;28;8992;-74
2021/05/21 10:20:18;;;;;;;;;2.50;1.00;;;;;;;;5061446;28;8853;-74
2021/05/21 10:22:46;;;;;;;;;0.75;0.75;;;;;;;;5059572;28;8870;-75
2021/05/21 10:25:23;;;;;;;;;3.00;0.00;;;;;;;;5065984;28;8846;-74
2021/05/21 10:27:53;;;;;;;;;0.00;0.00;;;;;;;;5066075;28;9638;-75
2021/05/21 10:30:23;;;;;;;;;1.00;1.00;;;;;;;;5061594;28;8865;-74
2021/05/21 10:32:50;;;;;;;;;0.00;0.00;;;;;;;;5064307;28;9027;-74
2021/05/21 10:35:19;;;;;;;;;2.50;0.75;;;;;;;;5060255;28;8856;-75
2021/05/21 10:37:48;;;;;;;;;1.00;1.00;;;;;;;;5063572;28;8955;-73
2021/05/21 10:40:24;;;;;;;;;1.75;1.75;;;;;;;;5058538;28;9581;-75
2021/05/21 10:42:52;;;;;;;;;0.50;0.00;;;;;;;;5061376;28;9001;-75
2021/05/21 10:45:21;;;;;;;;;1.00;0.00;;;;;;;;5042914;28;9016;-72
2021/05/21 10:47:57;;;;;;;;;1.75;0.25;;;;;;;;5041713;28;9011;-72
2021/05/21 10:50:32;;;;;;;;;1.00;1.00;;;;;;;;5058565;28;8862;-72
2021/05/21 10:53:03;;;;;;;;;2.50;1.00;;;;;;;;5057405;28;8867;-72
2021/05/21 10:55:53;;;;;;;;;0.50;0.00;;;;;;;;5061002;28;8884;-72
2021/05/21 10:58:26;;;;;;;;;1.00;1.00;;;;;;;;5062864;28;8925;-72
2021/05/21 11:01:19;;;;;;;;;1.00;1.00;;;;;;;;5056454;28;8830;-72
2021/05/21 11:04:07;;;;;;;;;0.25;0.25;;;;;;;;5054204;28;8941;-72
2021/05/21 11:06:44;;;;;;;;;0.75;0.75;;;;;;;;5062002;28;8940;-73
2021/05/21 11:09:13;;;;;;;;;1.75;0.00;;;;;;;;5061394;28;8890;-71
2021/05/21 11:11:47;;;;;;;;;0.25;0.25;;;;;;;;5073645;28;8846;-72
2021/05/21 11:14:29;;;;;;;;;3.50;0.25;;;;;;;;5040922;28;8870;-71
2021/05/21 11:16:58;;;;;;;;;0.00;0.00;;;;;;;;5062951;28;8880;-72
2021/05/21 11:19:26;;;;;;;;;1.00;0.00;;;;;;;;5055478;28;8862;-72
2021/05/21 11:22:06;;;;;;;;;1.25;1.25;;;;;;;;5058853;28;8887;-73
2021/05/21 11:24:39;;;;;;;;;0.50;0.50;;;;;;;;5062104;28;8856;-72
2021/05/21 11:27:14;;;;;;;;;1.00;1.00;;;;;;;;5062381;28;8852;-73
2021/05/21 11:29:46;;;;;;;;;0.50;0.50;;;;;;;;5063088;28;8874;-73
2021/05/21 11:32:14;;;;;;;;;1.00;1.00;;;;;;;;5065393;28;8824;-73
2021/05/21 11:34:41;;;;;;;;;1.00;1.00;;;;;;;;5061443;28;8857;-75
2021/05/21 11:37:08;;;;;;;;;1.00;1.00;;;;;;;;5060873;28;8879;-75
2021/05/21 11:39:37;;;;;;;;;1.75;0.00;;;;;;;;5060596;28;8866;-75
2021/05/21 11:42:05;;;;;;;;;2.00;0.50;;;;;;;;5059194;28;8884;-78
2021/05/21 11:44:34;;;;;;;;;3.25;1.50;;;;;;;;5058112;28;8878;-74
2021/05/21 11:47:03;;;;;;;;;1.75;1.00;;;;;;;;5063511;28;8864;-74
2021/05/21 11:49:30;;;;;;;;;0.00;0.00;;;;;;;;5059460;28;8876;-73
2021/05/21 11:52:00;;;;;;;;;0.25;0.25;;;;;;;;5062316;28;8852;-74
2021/05/21 11:54:28;;;;;;;;;0.00;0.00;;;;;;;;5060321;28;8858;-73
2021/05/21 11:56:57;;;;;;;;;1.00;1.00;;;;;;;;5079684;28;8865;-74
2021/05/21 11:59:24;;;;;;;;;0.00;0.00;;;;;;;;5060416;28;8844;-74
2021/05/21 12:01:53;;;;;;;;;1.00;1.00;;;;;;;;5057970;28;8836;-74
2021/05/21 12:04:21;;;;;;;;;2.00;0.00;;;;;;;;5057913;28;8841;-74
2021/05/21 12:06:50;;;;;;;;;1.00;1.00;;;;;;;;5063280;28;8874;-74
2021/05/21 12:09:19;;;;;;;;;2.50;0.25;;;;;;;;5059802;28;8872;-74
2021/05/21 12:11:46;;;;;;;;;4.25;0.75;;;;;;;;5059185;28;8878;-75
2021/05/21 12:14:15;;;;;;;;;1.00;1.00;;;;;;;;5061544;28;8853;-74
2021/05/21 12:16:44;;;;;;;;;1.00;1.00;;;;;;;;5056180;28;8995;-75
2021/05/21 12:19:14;;;;;;;;;1.50;1.00;;;;;;;;5058273;28;8868;-74
2021/05/21 12:21:42;;;;;;;;;1.00;1.00;;;;;;;;5040580;28;8846;-74
2021/05/21 12:24:12;;;;;;;;;0.00;0.00;;;;;;;;5060526;28;8872;-73
2021/05/21 12:26:40;;;;;;;;;0.00;0.00;;;;;;;;5059623;28;8907;-74
2021/05/21 12:29:10;;;;;;;;;1.50;0.00;;;;;;;;5056718;28;8852;-74
2021/05/21 12:31:39;;;;;;;;;0.25;0.25;;;;;;;;5063538;28;9572;-74
2021/05/21 12:34:06;;;;;;;;;0.00;0.00;;;;;;;;5062105;28;9596;-74
2021/05/21 12:36:35;;;;;;;;;0.00;0.00;;;;;;;;5043426;28;9657;-74
2021/05/21 12:39:05;;;;;;;;;0.50;0.50;;;;;;;;5057129;28;8868;-74
2021/05/21 12:41:33;;;;;;;;;2.00;0.00;;;;;;;;5065111;28;9622;-74
2021/05/21 12:44:18;;;;;;;;;2.50;0.50;;;;;;;;5060782;28;8860;-74
2021/05/21 12:46:50;;;;;;;;;1.00;1.00;;;;;;;;5061693;28;8874;-73
2021/05/21 12:49:18;;;;;;;;;4.00;1.00;;;;;;;;5059200;28;8999;-74
2021/05/21 12:51:51;;;;;;;;;0.00;0.00;;;;;;;;5042037;28;8844;-74
2021/05/21 12:54:24;;;;;;;;;0.00;0.00;;;;;;;;5056507;28;8895;-74
2021/05/21 12:56:59;;;;;;;;;1.00;1.00;;;;;;;;5062002;28;8864;-74
2021/05/21 12:59:40;;;;;;;;;1.00;0.00;;;;;;;;5058328;28;8903;-74
2021/05/21 13:02:11;;;;;;;;;0.00;0.00;;;;;;;;5062762;28;10100;-74
2021/05/21 13:04:38;;;;;;;;;1.00;1.00;;;;;;;;5053098;28;8866;-76
2021/05/21 13:07:06;;;;;;;;;0.00;0.00;;;;;;;;5059125;28;8844;-75
2021/05/21 13:09:35;;;;;;;;;0.00;0.00;;;;;;;;5059779;28;9739;-76
2021/05/21 13:12:03;;;;;;;;;1.00;0.00;;;;;;;;5060747;28;8896;-77
2021/05/21 13:14:32;;;;;;;;;1.00;1.00;;;;;;;;5062530;28;8868;-76
2021/05/21 13:17:04;;;;;;;;;0.00;0.00;;;;;;;;5059011;28;9674;-76
2021/05/21 13:19:35;;;;;;;;;0.60;0.60;;;;;;;;5056996;28;8872;-75
2021/05/21 13:22:13;;;;;;;;;2.00;0.20;;;;;;;;5052683;28;9662;-76
2021/05/21 13:24:42;;;;;;;;;3.20;2.00;;;;;;;;5052284;28;9034;-74
2021/05/21 13:27:09;;;;;;;;;1.20;1.20;;;;;;;;5056504;28;8886;-75
2021/05/21 13:29:36;;;;;;;;;1.00;1.00;;;;;;;;5056721;28;8976;-75
2021/05/21 13:32:04;;;;;;;;;0.00;0.00;;;;;;;;5047424;28;8801;-75
2021/05/21 13:34:31;;;;;;;;;0.00;0.00;;;;;;;;5056079;28;8884;-75
2021/05/21 13:36:58;;;;;;;;;0.75;0.75;;;;;;;;5059670;28;8874;-73
2021/05/21 13:39:26;;;;;;;;;0.00;0.00;;;;;;;;5060150;28;8868;-75
2021/05/21 13:41:53;;;;;;;;;1.00;1.00;;;;;;;;5063931;28;8874;-76
2021/05/21 13:44:20;;;;;;;;;2.50;1.00;;;;;;;;5042105;28;8874;-76
2021/05/21 13:46:47;;;;;;;;;0.00;0.00;;;;;;;;5065967;28;8882;-76
2021/05/21 13:49:14;;;;;;;;;0.75;0.75;;;;;;;;5061283;28;8855;-75
2021/05/21 13:51:44;;;;;;;;;0.50;0.50;;;;;;;;5055642;28;8882;-74
2021/05/21 13:54:11;;;;;;;;;0.00;0.00;;;;;;;;5062026;28;8852;-76
2021/05/21 13:56:39;;;;;;;;;0.00;0.00;;;;;;;;5060593;28;8898;-76
2021/05/21 13:59:06;;;;;;;;;0.00;0.00;;;;;;;;5063230;28;8846;-75
2021/05/21 14:01:34;;;;;;;;;0.00;0.00;;;;;;;;5061940;28;8819;-74
2021/05/21 14:04:01;;;;;;;;;0.00;0.00;;;;;;;;5044868;28;8883;-74
2021/05/21 14:06:29;;;;;;;;;0.00;0.00;;;;;;;;5065817;28;8910;-73
2021/05/21 14:08:55;;;;;;;;;0.25;0.25;;;;;;;;5062950;28;8876;-73
2021/05/21 14:11:22;;;;;;;;;0.00;0.00;;;;;;;;5064678;28;8868;-74
2021/05/21 14:13:50;;;;;;;;;0.00;0.00;;;;;;;;5071326;28;8915;-74
2021/05/21 14:16:17;;;;;;;;;0.00;0.00;;;;;;;;5065101;28;8868;-74
2021/05/21 14:18:44;;;;;;;;;0.00;0.00;;;;;;;;5062423;28;8978;-74
2021/05/21 14:21:11;;;;;;;;;0.00;0.00;;;;;;;;5072268;28;8852;-73
2021/05/21 14:23:40;;;;;;;;;0.80;0.20;;;;;;;;5066012;28;8967;-74
2021/05/21 14:26:07;;;;;;;;;1.00;1.00;;;;;;;;5061073;28;8903;-74
2021/05/21 14:28:34;;;;;;;;;0.00;0.00;;;;;;;;5064392;28;8856;-74
2021/05/21 14:31:03;;;;;;;;;2.00;0.25;;;;;;;;5065184;28;8811;-74
2021/05/21 14:33:35;;;;;;;;;1.00;0.00;;;;;;;;5067536;28;8898;-74
2021/05/21 14:36:03;;;;;;;;;0.00;0.00;;;;;;;;5061518;28;8844;-73
2021/05/21 14:38:30;;;;;;;;;0.00;0.00;;;;;;;;5064366;28;8860;-73
2021/05/21 14:40:57;;;;;;;;;0.00;0.00;;;;;;;;5064317;28;8836;-74
2021/05/21 14:43:24;;;;;;;;;1.00;0.20;;;;;;;;5066437;28;8882;-74
2021/05/21 14:45:52;;;;;;;;;2.00;0.00;;;;;;;;5067190;28;8844;-74
2021/05/21 14:48:21;;;;;;;;;2.00;0.00;;;;;;;;5066981;28;8868;-73
2021/05/21 14:50:49;;;;;;;;;0.75;0.00;;;;;;;;5064902;28;9018;-73
2021/05/21 14:53:16;;;;;;;;;0.00;0.00;;;;;;;;5061669;28;8879;-74
2021/05/21 14:55:43;;;;;;;;;0.00;0.00;;;;;;;;5059841;28;9606;-74
2021/05/21 14:58:10;;;;;;;;;1.00;1.00;;;;;;;;5076906;28;8862;-73
2021/05/21 15:00:37;;;;;;;;;2.00;0.75;;;;;;;;5063781;28;8923;-81
2021/05/21 15:03:06;;;;;;;;;0.00;0.00;;;;;;;;5043646;28;8976;-74
2021/05/21 15:05:35;;;;;;;;;0.00;0.00;;;;;;;;5059541;28;8864;-74